sensor_id;sensor_type;location;lat;lon;timestamp;P1;durP1;ratioP1;P2;durP2;ratioP2
55391;SDS011;41262;50.922;6.958;2022-07-22T20:13:03;11.48;;;5.72;;
55391;SDS011;41262;50.922;6.958;2022-07-22T20:15:30;9.05;;;5.10;;
55391;SDS011;41262;50.922;6.958;2022-07-22T20:17:57;8.93;;;5.10;;
55391;SDS011;41262;50.922;6.958;2022-07-22T20:20:23;12.48;;;5.80;;
55391;SDS011;41262;50.922;6.958;2022-07-22T20:22:52;8.57;;;4.93;;
55391;SDS011;41262;50.922;6.958;2022-07-22T20:25:19;8.93;;;5.00;;
55391;SDS011;41262;50.922;6.958;2022-07-22T20:27:54;9.57;;;5.30;;
55391;SDS011;41262;50.922;6.958;2022-07-22T20:30:21;8.55;;;5.30;;
55391;SDS011;41262;50.922;6.958;2022-07-22T20:32:48;8.43;;;4.78;;
55391;SDS011;41262;50.922;6.958;2022-07-22T20:35:14;8.57;;;5.20;;
55391;SDS011;41262;50.922;6.958;2022-07-22T20:37:41;10.07;;;5.72;;
55391;SDS011;41262;50.922;6.958;2022-07-22T20:40:07;9.98;;;5.47;;
55391;SDS011;41262;50.922;6.958;2022-07-22T20:42:34;8.98;;;5.03;;
55391;SDS011;41262;50.922;6.958;2022-07-22T20:45:03;8.55;;;4.65;;
55391;SDS011;41262;50.922;6.958;2022-07-22T20:47:30;10.13;;;5.07;;
55391;SDS011;41262;50.922;6.958;2022-07-22T20:49:57;8.27;;;4.97;;
55391;SDS011;41262;50.922;6.958;2022-07-22T20:52:23;9.02;;;5.35;;
55391;SDS011;41262;50.922;6.958;2022-07-22T20:54:50;8.40;;;5.22;;
55391;SDS011;41262;50.922;6.958;2022-07-22T20:57:16;9.02;;;5.85;;
55391;SDS011;41262;50.922;6.958;2022-07-22T20:59:43;9.23;;;4.50;;
55391;SDS011;41262;50.922;6.958;2022-07-22T21:02:09;8.68;;;5.05;;
55391;SDS011;41262;50.922;6.958;2022-07-22T21:04:41;8.52;;;5.30;;
55391;SDS011;41262;50.922;6.958;2022-07-22T21:07:08;8.43;;;4.80;;
55391;SDS011;41262;50.922;6.958;2022-07-22T21:09:34;8.93;;;5.75;;
55391;SDS011;41262;50.922;6.958;2022-07-22T21:12:01;9.20;;;5.40;;
55391;SDS011;41262;50.922;6.958;2022-07-22T21:14:28;10.30;;;5.15;;
55391;SDS011;41262;50.922;6.958;2022-07-22T21:16:54;9.38;;;5.55;;
55391;SDS011;41262;50.922;6.958;2022-07-22T21:19:21;9.75;;;5.32;;
55391;SDS011;41262;50.922;6.958;2022-07-22T21:21:47;10.00;;;5.47;;
55391;SDS011;41262;50.922;6.958;2022-07-22T21:24:14;10.18;;;5.50;;
55391;SDS011;41262;50.922;6.958;2022-07-22T21:26:40;13.00;;;5.40;;
55391;SDS011;41262;50.922;6.958;2022-07-22T21:29:07;10.73;;;5.10;;
55391;SDS011;41262;50.922;6.958;2022-07-22T21:31:34;10.70;;;5.72;;
55391;SDS011;41262;50.922;6.958;2022-07-22T21:34:00;10.45;;;5.55;;
55391;SDS011;41262;50.922;6.958;2022-07-22T21:36:27;10.63;;;5.18;;
55391;SDS011;41262;50.922;6.958;2022-07-22T21:38:53;9.57;;;5.25;;
55391;SDS011;41262;50.922;6.958;2022-07-22T21:41:20;7.75;;;5.07;;
55391;SDS011;41262;50.922;6.958;2022-07-22T21:43:46;12.43;;;4.82;;
55391;SDS011;41262;50.922;6.958;2022-07-22T21:46:13;9.40;;;5.15;;
55391;SDS011;41262;50.922;6.958;2022-07-22T21:48:40;9.77;;;5.45;;
55391;SDS011;41262;50.922;6.958;2022-07-22T21:51:06;10.95;;;5.60;;
55391;SDS011;41262;50.922;6.958;2022-07-22T21:53:33;10.13;;;4.63;;
55391;SDS011;41262;50.922;6.958;2022-07-22T21:55:59;8.88;;;4.90;;
55391;SDS011;41262;50.922;6.958;2022-07-22T21:58:45;7.57;;;4.72;;
55391;SDS011;41262;50.922;6.958;2022-07-22T22:01:11;11.10;;;5.43;;
55391;SDS011;41262;50.922;6.958;2022-07-22T22:03:38;9.23;;;5.50;;
55391;SDS011;41262;50.922;6.958;2022-07-22T22:06:04;9.65;;;5.03;;
55391;SDS011;41262;50.922;6.958;2022-07-22T22:08:31;6.38;;;4.22;;
55391;SDS011;41262;50.922;6.958;2022-07-22T22:10:57;8.70;;;5.38;;
55391;SDS011;41262;50.922;6.958;2022-07-22T22:13:25;8.02;;;4.82;;
55391;SDS011;41262;50.922;6.958;2022-07-22T22:15:51;10.07;;;5.13;;
55391;SDS011;41262;50.922;6.958;2022-07-22T22:18:18;6.50;;;4.20;;
55391;SDS011;41262;50.922;6.958;2022-07-22T22:20:44;6.88;;;4.63;;
55391;SDS011;41262;50.922;6.958;2022-07-22T22:23:12;9.95;;;5.18;;
55391;SDS011;41262;50.922;6.958;2022-07-22T22:25:38;9.40;;;4.70;;
55391;SDS011;41262;50.922;6.958;2022-07-22T22:28:05;8.68;;;4.90;;
55391;SDS011;41262;50.922;6.958;2022-07-22T22:30:31;9.27;;;5.25;;
55391;SDS011;41262;50.922;6.958;2022-07-22T22:32:58;8.10;;;4.75;;
55391;SDS011;41262;50.922;6.958;2022-07-22T22:35:25;10.23;;;6.05;;
55391;SDS011;41262;50.922;6.958;2022-07-22T22:37:51;7.60;;;4.78;;
55391;SDS011;41262;50.922;6.958;2022-07-22T22:40:18;7.57;;;5.18;;
55391;SDS011;41262;50.922;6.958;2022-07-22T22:42:44;10.43;;;6.03;;
55391;SDS011;41262;50.922;6.958;2022-07-22T22:45:11;9.32;;;5.75;;
55391;SDS011;41262;50.922;6.958;2022-07-22T22:47:38;8.50;;;5.43;;
55391;SDS011;41262;50.922;6.958;2022-07-22T22:50:04;12.73;;;6.05;;
55391;SDS011;41262;50.922;6.958;2022-07-22T22:52:31;10.70;;;6.70;;
55391;SDS011;41262;50.922;6.958;2022-07-22T22:54:58;14.20;;;5.53;;
55391;SDS011;41262;50.922;6.958;2022-07-22T22:57:24;13.18;;;5.93;;
55391;SDS011;41262;50.922;6.958;2022-07-22T22:59:51;10.30;;;6.32;;
55391;SDS011;41262;50.922;6.958;2022-07-22T23:02:17;9.48;;;6.00;;
55391;SDS011;41262;50.922;6.958;2022-07-22T23:04:44;11.88;;;6.60;;
55391;SDS011;41262;50.922;6.958;2022-07-22T23:07:10;10.63;;;5.82;;
55391;SDS011;41262;50.922;6.958;2022-07-22T23:09:37;12.25;;;7.03;;
55391;SDS011;41262;50.922;6.958;2022-07-22T23:12:04;11.25;;;6.28;;
55391;SDS011;41262;50.922;6.958;2022-07-22T23:14:30;11.52;;;6.70;;
55391;SDS011;41262;50.922;6.958;2022-07-22T23:16:57;9.50;;;5.53;;
55391;SDS011;41262;50.922;6.958;2022-07-22T23:19:23;9.35;;;5.60;;
55391;SDS011;41262;50.922;6.958;2022-07-22T23:21:50;11.30;;;5.93;;
55391;SDS011;41262;50.922;6.958;2022-07-22T23:24:17;13.27;;;5.93;;
55391;SDS011;41262;50.922;6.958;2022-07-22T23:26:43;11.82;;;6.53;;
55391;SDS011;41262;50.922;6.958;2022-07-22T23:29:10;11.38;;;6.32;;
55391;SDS011;41262;50.922;6.958;2022-07-22T23:31:36;10.90;;;6.30;;
55391;SDS011;41262;50.922;6.958;2022-07-22T23:34:03;14.80;;;7.05;;
55391;SDS011;41262;50.922;6.958;2022-07-22T23:36:30;11.30;;;6.82;;
55391;SDS011;41262;50.922;6.958;2022-07-22T23:38:56;12.13;;;7.20;;
55391;SDS011;41262;50.922;6.958;2022-07-22T23:41:23;12.02;;;6.15;;
55391;SDS011;41262;50.922;6.958;2022-07-22T23:43:50;14.93;;;7.68;;
55391;SDS011;41262;50.922;6.958;2022-07-22T23:46:16;17.23;;;8.98;;
55391;SDS011;41262;50.922;6.958;2022-07-22T23:48:43;10.55;;;7.38;;
55391;SDS011;41262;50.922;6.958;2022-07-22T23:51:10;13.35;;;7.18;;
55391;SDS011;41262;50.922;6.958;2022-07-22T23:53:36;12.07;;;7.18;;
55391;SDS011;41262;50.922;6.958;2022-07-22T23:56:03;12.70;;;6.25;;
55391;SDS011;41262;50.922;6.958;2022-07-22T23:58:30;10.20;;;7.05;;
